sensor_id;sensor_type;location;lat;lon;timestamp;pressure;altitude;pressure_sealevel;temperature;humidity
70254;BME280;57649;42.968;1.608;2023-02-14T00:02:17;98761.78;;;1.01;91.40
70254;BME280;57649;42.968;1.608;2023-02-14T00:04:43;98750.59;;;0.96;91.90
70254;BME280;57649;42.968;1.608;2023-02-14T00:07:11;98758.59;;;0.94;91.58
70254;BME280;57649;42.968;1.608;2023-02-14T00:09:37;98751.75;;;0.90;91.42
70254;BME280;57649;42.968;1.608;2023-02-14T00:12:02;98745.91;;;1.03;91.13
70254;BME280;57649;42.968;1.608;2023-02-14T00:14:28;98746.19;;;0.96;91.25
70254;BME280;57649;42.968;1.608;2023-02-14T00:17:12;98737.25;;;0.82;91.60
70254;BME280;57649;42.968;1.608;2023-02-14T00:19:37;98732.72;;;0.66;92.09
70254;BME280;57649;42.968;1.608;2023-02-14T00:22:04;98750.16;;;0.69;93.01
70254;BME280;57649;42.968;1.608;2023-02-14T00:24:30;98743.88;;;0.71;93.40
70254;BME280;57649;42.968;1.608;2023-02-14T00:26:55;98743.16;;;0.68;93.17
70254;BME280;57649;42.968;1.608;2023-02-14T00:29:24;98736.06;;;0.51;93.85
70254;BME280;57649;42.968;1.608;2023-02-14T00:31:50;98747.50;;;0.69;93.27
70254;BME280;57649;42.968;1.608;2023-02-14T00:34:16;98733.16;;;0.57;93.39
70254;BME280;57649;42.968;1.608;2023-02-14T00:36:42;98742.81;;;0.56;93.68
70254;BME280;57649;42.968;1.608;2023-02-14T00:39:10;98733.22;;;0.55;94.38
70254;BME280;57649;42.968;1.608;2023-02-14T00:41:37;98734.31;;;0.51;93.88
70254;BME280;57649;42.968;1.608;2023-02-14T00:44:03;98727.50;;;0.65;93.53
70254;BME280;57649;42.968;1.608;2023-02-14T00:46:28;98730.84;;;0.68;92.50
70254;BME280;57649;42.968;1.608;2023-02-14T00:48:54;98736.19;;;0.67;92.38
70254;BME280;57649;42.968;1.608;2023-02-14T00:51:20;98729.03;;;0.51;93.05
70254;BME280;57649;42.968;1.608;2023-02-14T00:53:47;98728.19;;;0.32;93.55
70254;BME280;57649;42.968;1.608;2023-02-14T00:56:13;98731.03;;;0.46;92.83
70254;BME280;57649;42.968;1.608;2023-02-14T00:58:39;98721.34;;;0.47;92.94
70254;BME280;57649;42.968;1.608;2023-02-14T01:01:05;98723.13;;;0.46;92.94
70254;BME280;57649;42.968;1.608;2023-02-14T01:03:31;98713.44;;;0.47;92.92
70254;BME280;57649;42.968;1.608;2023-02-14T01:05:57;98713.78;;;0.39;93.72
70254;BME280;57649;42.968;1.608;2023-02-14T01:08:22;98719.97;;;0.38;93.80
70254;BME280;57649;42.968;1.608;2023-02-14T01:10:48;98725.31;;;0.36;93.77
70254;BME280;57649;42.968;1.608;2023-02-14T01:13:14;98715.50;;;0.21;94.05
70254;BME280;57649;42.968;1.608;2023-02-14T01:15:48;98712.94;;;0.19;93.93
70254;BME280;57649;42.968;1.608;2023-02-14T01:18:15;98710.59;;;0.13;93.93
70254;BME280;57649;42.968;1.608;2023-02-14T01:20:41;98711.69;;;0.09;94.14
70254;BME280;57649;42.968;1.608;2023-02-14T01:23:07;98711.75;;;0.08;94.52
70254;BME280;57649;42.968;1.608;2023-02-14T01:25:32;98711.16;;;0.01;95.09
70254;BME280;57649;42.968;1.608;2023-02-14T01:27:58;98709.94;;;0.08;95.34
70254;BME280;57649;42.968;1.608;2023-02-14T01:30:24;98708.38;;;0.04;95.45
70254;BME280;57649;42.968;1.608;2023-02-14T01:32:50;98712.03;;;0.21;94.45
70254;BME280;57649;42.968;1.608;2023-02-14T01:35:16;98710.09;;;0.05;95.02
70254;BME280;57649;42.968;1.608;2023-02-14T01:37:41;98712.22;;;-0.03;96.27
70254;BME280;57649;42.968;1.608;2023-02-14T01:40:08;98693.00;;;-0.05;95.92
70254;BME280;57649;42.968;1.608;2023-02-14T01:42:35;98700.31;;;0.07;95.17
70254;BME280;57649;42.968;1.608;2023-02-14T01:45:22;98704.31;;;-0.03;95.05
70254;BME280;57649;42.968;1.608;2023-02-14T01:47:53;98702.59;;;-0.04;94.98
70254;BME280;57649;42.968;1.608;2023-02-14T01:50:29;98692.50;;;-0.13;94.96
70254;BME280;57649;42.968;1.608;2023-02-14T01:53:10;98687.38;;;-0.16;95.13
70254;BME280;57649;42.968;1.608;2023-02-14T01:55:46;98689.88;;;-0.13;95.47
70254;BME280;57649;42.968;1.608;2023-02-14T01:58:18;98685.72;;;-0.19;95.83
70254;BME280;57649;42.968;1.608;2023-02-14T02:00:45;98681.53;;;-0.23;95.62
70254;BME280;57649;42.968;1.608;2023-02-14T02:03:25;98696.47;;;-0.24;95.37
70254;BME280;57649;42.968;1.608;2023-02-14T02:05:55;98694.28;;;-0.14;94.88
70254;BME280;57649;42.968;1.608;2023-02-14T02:08:22;98688.06;;;-0.32;95.96
70254;BME280;57649;42.968;1.608;2023-02-14T02:10:48;98689.19;;;-0.37;96.04
70254;BME280;57649;42.968;1.608;2023-02-14T02:13:17;98686.91;;;-0.45;96.16
70254;BME280;57649;42.968;1.608;2023-02-14T02:24:23;98686.16;;;-0.28;95.98
70254;BME280;57649;42.968;1.608;2023-02-14T02:35:52;98674.06;;;-0.32;96.26
70254;BME280;57649;42.968;1.608;2023-02-14T02:44:15;98672.38;;;-0.54;96.44
70254;BME280;57649;42.968;1.608;2023-02-14T02:52:48;98659.03;;;-0.49;96.11
70254;BME280;57649;42.968;1.608;2023-02-14T02:55:36;98664.91;;;-0.44;95.82
70254;BME280;57649;42.968;1.608;2023-02-14T02:58:26;98646.13;;;-0.55;96.18
70254;BME280;57649;42.968;1.608;2023-02-14T03:00:54;98648.63;;;-0.52;95.57
70254;BME280;57649;42.968;1.608;2023-02-14T03:03:23;98648.19;;;-0.62;96.04
70254;BME280;57649;42.968;1.608;2023-02-14T03:06:08;98638.16;;;-0.73;96.19
70254;BME280;57649;42.968;1.608;2023-02-14T03:08:33;98647.88;;;-0.75;96.68
70254;BME280;57649;42.968;1.608;2023-02-14T03:11:00;98637.16;;;-0.70;96.53
70254;BME280;57649;42.968;1.608;2023-02-14T03:16:22;98631.03;;;-0.71;97.12
70254;BME280;57649;42.968;1.608;2023-02-14T03:21:53;98621.06;;;-0.83;97.29
70254;BME280;57649;42.968;1.608;2023-02-14T03:27:27;98617.03;;;-0.92;97.78
70254;BME280;57649;42.968;1.608;2023-02-14T03:34:58;98617.53;;;-0.82;96.88
70254;BME280;57649;42.968;1.608;2023-02-14T03:37:30;98606.53;;;-0.92;96.44
70254;BME280;57649;42.968;1.608;2023-02-14T03:42:45;98598.94;;;-0.98;95.87
70254;BME280;57649;42.968;1.608;2023-02-14T03:45:19;98601.94;;;-0.87;95.25
70254;BME280;57649;42.968;1.608;2023-02-14T03:47:47;98599.31;;;-0.87;95.24
70254;BME280;57649;42.968;1.608;2023-02-14T03:50:18;98592.25;;;-0.86;95.24
70254;BME280;57649;42.968;1.608;2023-02-14T03:52:46;98602.34;;;-0.96;95.51
70254;BME280;57649;42.968;1.608;2023-02-14T03:55:16;98598.25;;;-1.03;95.26
70254;BME280;57649;42.968;1.608;2023-02-14T04:00:18;98594.50;;;-0.98;95.22
70254;BME280;57649;42.968;1.608;2023-02-14T04:02:54;98595.97;;;-1.11;94.61
70254;BME280;57649;42.968;1.608;2023-02-14T04:05:25;98599.38;;;-1.09;95.67
70254;BME280;57649;42.968;1.608;2023-02-14T04:07:55;98600.31;;;-1.10;95.38
70254;BME280;57649;42.968;1.608;2023-02-14T04:10:22;98597.53;;;-1.07;95.31
70254;BME280;57649;42.968;1.608;2023-02-14T04:12:48;98597.69;;;-1.10;96.13
70254;BME280;57649;42.968;1.608;2023-02-14T04:15:14;98603.72;;;-1.08;96.78
70254;BME280;57649;42.968;1.608;2023-02-14T04:17:40;98602.06;;;-1.10;96.52
70254;BME280;57649;42.968;1.608;2023-02-14T04:20:24;98598.38;;;-1.06;96.32
70254;BME280;57649;42.968;1.608;2023-02-14T04:22:50;98602.00;;;-0.88;95.79
70254;BME280;57649;42.968;1.608;2023-02-14T04:25:16;98593.06;;;-0.84;95.80
70254;BME280;57649;42.968;1.608;2023-02-14T04:27:42;98596.28;;;-0.78;95.21
70254;BME280;57649;42.968;1.608;2023-02-14T04:30:08;98585.16;;;-0.64;94.96
70254;BME280;57649;42.968;1.608;2023-02-14T04:32:34;98589.53;;;-0.64;95.48
70254;BME280;57649;42.968;1.608;2023-02-14T04:34:59;98583.72;;;-0.71;95.11
70254;BME280;57649;42.968;1.608;2023-02-14T04:37:25;98591.72;;;-0.74;94.47
70254;BME280;57649;42.968;1.608;2023-02-14T04:39:50;98581.16;;;-0.72;93.77
70254;BME280;57649;42.968;1.608;2023-02-14T04:42:15;98583.88;;;-0.94;93.65
70254;BME280;57649;42.968;1.608;2023-02-14T04:44:41;98577.97;;;-1.00;92.84
70254;BME280;57649;42.968;1.608;2023-02-14T04:47:07;98582.16;;;-0.95;94.17
70254;BME280;57649;42.968;1.608;2023-02-14T04:49:32;98585.81;;;-0.79;93.82
70254;BME280;57649;42.968;1.608;2023-02-14T04:51:58;98582.56;;;-0.84;93.34
70254;BME280;57649;42.968;1.608;2023-02-14T04:54:23;98587.81;;;-0.84;94.27
70254;BME280;57649;42.968;1.608;2023-02-14T04:56:49;98581.44;;;-0.79;94.55
70254;BME280;57649;42.968;1.608;2023-02-14T04:59:15;98584.00;;;-0.98;95.48
70254;BME280;57649;42.968;1.608;2023-02-14T05:01:40;98577.31;;;-1.05;95.97
70254;BME280;57649;42.968;1.608;2023-02-14T05:04:06;98581.03;;;-0.90;95.35
70254;BME280;57649;42.968;1.608;2023-02-14T05:06:32;98588.91;;;-0.90;95.16
70254;BME280;57649;42.968;1.608;2023-02-14T05:08:58;98588.91;;;-0.90;93.82
70254;BME280;57649;42.968;1.608;2023-02-14T05:11:24;98590.56;;;-0.87;93.98
70254;BME280;57649;42.968;1.608;2023-02-14T05:13:49;98585.78;;;-0.98;93.21
70254;BME280;57649;42.968;1.608;2023-02-14T05:16:15;98585.34;;;-1.08;92.43
70254;BME280;57649;42.968;1.608;2023-02-14T05:18:40;98590.03;;;-0.95;93.30
70254;BME280;57649;42.968;1.608;2023-02-14T05:21:06;98591.56;;;-1.10;91.06
70254;BME280;57649;42.968;1.608;2023-02-14T05:23:32;98591.97;;;-1.20;89.92
70254;BME280;57649;42.968;1.608;2023-02-14T05:25:57;98592.56;;;-1.33;89.83
70254;BME280;57649;42.968;1.608;2023-02-14T05:28:23;98590.81;;;-1.55;91.37
70254;BME280;57649;42.968;1.608;2023-02-14T05:30:50;98605.47;;;-1.49;92.22
70254;BME280;57649;42.968;1.608;2023-02-14T05:33:16;98591.44;;;-1.48;93.89
70254;BME280;57649;42.968;1.608;2023-02-14T05:35:41;98589.38;;;-1.42;94.56
70254;BME280;57649;42.968;1.608;2023-02-14T05:38:07;98597.16;;;-1.39;93.89
70254;BME280;57649;42.968;1.608;2023-02-14T05:40:33;98594.91;;;-1.27;93.13
70254;BME280;57649;42.968;1.608;2023-02-14T05:42:58;98598.44;;;-1.28;92.61
70254;BME280;57649;42.968;1.608;2023-02-14T05:45:24;98608.22;;;-1.32;92.67
70254;BME280;57649;42.968;1.608;2023-02-14T05:47:49;98608.38;;;-1.35;93.69
70254;BME280;57649;42.968;1.608;2023-02-14T05:50:16;98600.34;;;-1.32;93.06
70254;BME280;57649;42.968;1.608;2023-02-14T05:52:41;98610.00;;;-1.32;92.87
70254;BME280;57649;42.968;1.608;2023-02-14T05:55:07;98597.50;;;-1.26;92.44
70254;BME280;57649;42.968;1.608;2023-02-14T05:57:33;98603.78;;;-1.30;92.01
70254;BME280;57649;42.968;1.608;2023-02-14T05:59:58;98602.75;;;-1.26;92.66
70254;BME280;57649;42.968;1.608;2023-02-14T06:02:24;98604.66;;;-1.29;92.07
70254;BME280;57649;42.968;1.608;2023-02-14T06:04:49;98592.13;;;-1.45;92.16
70254;BME280;57649;42.968;1.608;2023-02-14T06:07:15;98596.09;;;-1.34;92.29
70254;BME280;57649;42.968;1.608;2023-02-14T06:09:41;98603.91;;;-1.33;92.31
70254;BME280;57649;42.968;1.608;2023-02-14T06:12:06;98599.19;;;-1.25;92.13
70254;BME280;57649;42.968;1.608;2023-02-14T06:14:32;98597.72;;;-1.32;91.62
70254;BME280;57649;42.968;1.608;2023-02-14T06:16:57;98602.56;;;-1.43;91.72
70254;BME280;57649;42.968;1.608;2023-02-14T06:19:22;98607.88;;;-1.45;91.94
70254;BME280;57649;42.968;1.608;2023-02-14T06:21:48;98609.44;;;-1.39;90.89
70254;BME280;57649;42.968;1.608;2023-02-14T06:24:13;98609.22;;;-1.34;91.24
70254;BME280;57649;42.968;1.608;2023-02-14T06:26:39;98614.47;;;-1.34;91.52
70254;BME280;57649;42.968;1.608;2023-02-14T06:29:05;98618.78;;;-1.54;94.05
70254;BME280;57649;42.968;1.608;2023-02-14T06:31:30;98622.75;;;-1.44;93.94
70254;BME280;57649;42.968;1.608;2023-02-14T06:33:56;98621.84;;;-1.43;94.11
70254;BME280;57649;42.968;1.608;2023-02-14T06:36:21;98605.06;;;-1.61;95.28
70254;BME280;57649;42.968;1.608;2023-02-14T06:38:47;98609.88;;;-1.50;95.14
70254;BME280;57649;42.968;1.608;2023-02-14T06:41:14;98604.00;;;-1.57;94.73
70254;BME280;57649;42.968;1.608;2023-02-14T06:43:42;98610.50;;;-1.45;94.81
70254;BME280;57649;42.968;1.608;2023-02-14T06:46:08;98606.66;;;-1.36;93.93
70254;BME280;57649;42.968;1.608;2023-02-14T06:48:34;98608.44;;;-1.37;93.89
70254;BME280;57649;42.968;1.608;2023-02-14T06:51:00;98610.00;;;-1.53;93.35
70254;BME280;57649;42.968;1.608;2023-02-14T06:53:25;98618.53;;;-1.48;93.90
70254;BME280;57649;42.968;1.608;2023-02-14T06:55:50;98618.28;;;-1.42;94.04
70254;BME280;57649;42.968;1.608;2023-02-14T06:58:16;98612.53;;;-1.29;93.22
70254;BME280;57649;42.968;1.608;2023-02-14T07:00:41;98617.50;;;-1.23;91.63
70254;BME280;57649;42.968;1.608;2023-02-14T07:03:07;98621.47;;;-1.33;91.90
70254;BME280;57649;42.968;1.608;2023-02-14T07:05:33;98618.88;;;-1.35;91.35
70254;BME280;57649;42.968;1.608;2023-02-14T07:07:59;98614.75;;;-1.41;90.47
70254;BME280;57649;42.968;1.608;2023-02-14T07:10:24;98625.59;;;-1.28;90.30
70254;BME280;57649;42.968;1.608;2023-02-14T07:12:50;98628.78;;;-1.42;91.18
70254;BME280;57649;42.968;1.608;2023-02-14T07:15:15;98623.66;;;-1.45;91.12
70254;BME280;57649;42.968;1.608;2023-02-14T07:17:41;98630.34;;;-1.38;90.61
70254;BME280;57649;42.968;1.608;2023-02-14T07:20:08;98637.94;;;-1.30;91.18
70254;BME280;57649;42.968;1.608;2023-02-14T07:22:34;98632.59;;;-1.28;90.86
70254;BME280;57649;42.968;1.608;2023-02-14T07:24:59;98635.13;;;-1.25;89.79
70254;BME280;57649;42.968;1.608;2023-02-14T07:27:25;98632.38;;;-1.22;89.92
70254;BME280;57649;42.968;1.608;2023-02-14T07:29:50;98623.63;;;-1.23;89.60
70254;BME280;57649;42.968;1.608;2023-02-14T07:32:16;98628.75;;;-1.20;90.21
70254;BME280;57649;42.968;1.608;2023-02-14T07:34:41;98634.38;;;-1.29;89.37
70254;BME280;57649;42.968;1.608;2023-02-14T07:37:07;98625.84;;;-1.34;89.63
70254;BME280;57649;42.968;1.608;2023-02-14T07:39:32;98637.81;;;-1.27;89.13
70254;BME280;57649;42.968;1.608;2023-02-14T07:41:58;98631.41;;;-1.42;89.16
70254;BME280;57649;42.968;1.608;2023-02-14T07:44:23;98636.56;;;-1.39;89.30
70254;BME280;57649;42.968;1.608;2023-02-14T07:46:49;98637.28;;;-1.35;88.93
70254;BME280;57649;42.968;1.608;2023-02-14T07:49:14;98634.22;;;-1.24;89.69
70254;BME280;57649;42.968;1.608;2023-02-14T07:51:40;98640.91;;;-1.17;89.75
70254;BME280;57649;42.968;1.608;2023-02-14T07:54:05;98638.28;;;-1.17;90.64
70254;BME280;57649;42.968;1.608;2023-02-14T07:56:31;98639.97;;;-1.16;91.52
70254;BME280;57649;42.968;1.608;2023-02-14T07:58:56;98638.34;;;-0.98;91.10
70254;BME280;57649;42.968;1.608;2023-02-14T08:01:22;98641.31;;;-1.06;91.43
70254;BME280;57649;42.968;1.608;2023-02-14T08:03:47;98641.44;;;-0.88;91.38
70254;BME280;57649;42.968;1.608;2023-02-14T08:06:22;98631.06;;;-0.91;90.87
70254;BME280;57649;42.968;1.608;2023-02-14T08:08:50;98632.88;;;-0.73;90.36
70254;BME280;57649;42.968;1.608;2023-02-14T08:11:16;98629.19;;;-0.69;90.28
70254;BME280;57649;42.968;1.608;2023-02-14T08:14:02;98637.13;;;-0.50;90.05
70254;BME280;57649;42.968;1.608;2023-02-14T08:16:28;98635.34;;;-0.49;90.92
70254;BME280;57649;42.968;1.608;2023-02-14T08:18:53;98634.22;;;-0.44;91.29
70254;BME280;57649;42.968;1.608;2023-02-14T08:21:20;98632.06;;;-0.54;91.31
70254;BME280;57649;42.968;1.608;2023-02-14T08:23:45;98636.75;;;-0.61;91.13
70254;BME280;57649;42.968;1.608;2023-02-14T08:26:11;98639.44;;;-0.42;90.79
70254;BME280;57649;42.968;1.608;2023-02-14T08:28:36;98637.41;;;-0.37;90.89
70254;BME280;57649;42.968;1.608;2023-02-14T08:31:03;98632.44;;;-0.43;90.95
70254;BME280;57649;42.968;1.608;2023-02-14T08:33:28;98635.78;;;-0.21;90.22
70254;BME280;57649;42.968;1.608;2023-02-14T08:35:54;98634.38;;;-0.28;90.88
70254;BME280;57649;42.968;1.608;2023-02-14T08:38:19;98620.16;;;-0.24;90.54
70254;BME280;57649;42.968;1.608;2023-02-14T08:40:45;98630.25;;;-0.14;90.61
70254;BME280;57649;42.968;1.608;2023-02-14T08:43:10;98618.84;;;-0.15;90.66
70254;BME280;57649;42.968;1.608;2023-02-14T08:45:37;98625.34;;;-0.03;90.87
70254;BME280;57649;42.968;1.608;2023-02-14T08:48:05;98628.72;;;0.18;90.10
70254;BME280;57649;42.968;1.608;2023-02-14T08:50:31;98631.22;;;0.21;90.12
70254;BME280;57649;42.968;1.608;2023-02-14T08:52:57;98620.50;;;0.26;90.25
70254;BME280;57649;42.968;1.608;2023-02-14T08:55:23;98622.81;;;0.32;89.60
70254;BME280;57649;42.968;1.608;2023-02-14T08:57:48;98604.44;;;0.30;89.96
70254;BME280;57649;42.968;1.608;2023-02-14T09:00:14;98623.78;;;0.48;89.60
70254;BME280;57649;42.968;1.608;2023-02-14T09:02:40;98614.47;;;0.58;87.72
70254;BME280;57649;42.968;1.608;2023-02-14T09:05:05;98605.25;;;0.67;86.31
70254;BME280;57649;42.968;1.608;2023-02-14T09:07:33;98617.69;;;0.83;85.72
70254;BME280;57649;42.968;1.608;2023-02-14T09:09:59;98604.13;;;0.90;85.51
70254;BME280;57649;42.968;1.608;2023-02-14T09:12:24;98599.06;;;1.03;84.76
70254;BME280;57649;42.968;1.608;2023-02-14T09:14:49;98601.78;;;1.19;83.01
70254;BME280;57649;42.968;1.608;2023-02-14T09:17:15;98609.19;;;1.28;82.34
70254;BME280;57649;42.968;1.608;2023-02-14T09:19:41;98600.19;;;1.48;81.89
70254;BME280;57649;42.968;1.608;2023-02-14T09:22:07;98596.22;;;1.57;82.39
70254;BME280;57649;42.968;1.608;2023-02-14T09:24:34;98589.34;;;1.86;80.77
70254;BME280;57649;42.968;1.608;2023-02-14T09:27:00;98600.28;;;1.96;79.64
70254;BME280;57649;42.968;1.608;2023-02-14T09:29:27;98590.22;;;2.19;78.28
70254;BME280;57649;42.968;1.608;2023-02-14T09:31:54;98579.66;;;2.35;77.37
70254;BME280;57649;42.968;1.608;2023-02-14T09:34:20;98586.50;;;2.53;76.18
70254;BME280;57649;42.968;1.608;2023-02-14T09:36:46;98576.88;;;2.82;73.81
70254;BME280;57649;42.968;1.608;2023-02-14T09:39:11;98580.63;;;3.23;73.11
70254;BME280;57649;42.968;1.608;2023-02-14T09:42:00;98577.28;;;3.77;70.36
70254;BME280;57649;42.968;1.608;2023-02-14T09:44:32;98575.38;;;4.35;67.87
70254;BME280;57649;42.968;1.608;2023-02-14T09:47:06;98572.84;;;4.86;64.78
70254;BME280;57649;42.968;1.608;2023-02-14T09:49:36;98581.28;;;5.18;63.95
70254;BME280;57649;42.968;1.608;2023-02-14T09:52:05;98571.41;;;5.46;62.80
70254;BME280;57649;42.968;1.608;2023-02-14T09:54:34;98564.34;;;5.71;62.22
70254;BME280;57649;42.968;1.608;2023-02-14T09:57:10;98568.97;;;6.06;60.42
70254;BME280;57649;42.968;1.608;2023-02-14T10:05:00;98554.69;;;7.15;57.97
70254;BME280;57649;42.968;1.608;2023-02-14T10:07:59;98556.88;;;7.43;57.06
70254;BME280;57649;42.968;1.608;2023-02-14T10:10:41;98551.31;;;7.46;56.56
70254;BME280;57649;42.968;1.608;2023-02-14T10:13:16;98541.13;;;7.85;56.52
70254;BME280;57649;42.968;1.608;2023-02-14T10:16:02;98552.13;;;8.15;56.22
70254;BME280;57649;42.968;1.608;2023-02-14T10:21:06;98535.03;;;8.61;55.74
70254;BME280;57649;42.968;1.608;2023-02-14T10:23:35;98539.75;;;8.90;55.24
70254;BME280;57649;42.968;1.608;2023-02-14T10:26:09;98542.59;;;9.19;55.08
70254;BME280;57649;42.968;1.608;2023-02-14T10:28:44;98539.72;;;9.32;54.66
70254;BME280;57649;42.968;1.608;2023-02-14T10:33:36;98537.38;;;9.69;57.72
70254;BME280;57649;42.968;1.608;2023-02-14T10:36:09;98528.19;;;9.93;57.72
70254;BME280;57649;42.968;1.608;2023-02-14T10:39:00;98525.59;;;10.32;58.40
70254;BME280;57649;42.968;1.608;2023-02-14T10:52:34;98508.03;;;11.35;57.69
70254;BME280;57649;42.968;1.608;2023-02-14T10:58:11;98494.03;;;11.41;56.28
70254;BME280;57649;42.968;1.608;2023-02-14T11:00:45;98488.91;;;11.48;56.01
70254;BME280;57649;42.968;1.608;2023-02-14T11:03:13;98482.25;;;11.52;56.63
70254;BME280;57649;42.968;1.608;2023-02-14T11:05:46;98481.44;;;11.79;55.02
70254;BME280;57649;42.968;1.608;2023-02-14T11:08:33;98479.69;;;11.60;56.58
70254;BME280;57649;42.968;1.608;2023-02-14T11:13:46;98468.75;;;12.09;55.82
70254;BME280;57649;42.968;1.608;2023-02-14T11:16:27;98461.13;;;12.04;55.27
70254;BME280;57649;42.968;1.608;2023-02-14T11:19:08;98463.84;;;12.40;54.41
70254;BME280;57649;42.968;1.608;2023-02-14T11:21:38;98456.53;;;12.32;55.11
70254;BME280;57649;42.968;1.608;2023-02-14T11:24:22;98453.31;;;12.47;54.86
70254;BME280;57649;42.968;1.608;2023-02-14T11:26:50;98448.47;;;12.68;54.67
70254;BME280;57649;42.968;1.608;2023-02-14T11:29:34;98438.66;;;12.41;54.45
70254;BME280;57649;42.968;1.608;2023-02-14T11:34:37;98421.06;;;12.91;53.82
70254;BME280;57649;42.968;1.608;2023-02-14T11:37:16;98417.91;;;12.96;53.55
70254;BME280;57649;42.968;1.608;2023-02-14T11:39:42;98416.63;;;12.82;54.15
70254;BME280;57649;42.968;1.608;2023-02-14T11:42:11;98401.38;;;12.82;54.05
70254;BME280;57649;42.968;1.608;2023-02-14T11:44:36;98401.66;;;12.97;53.36
70254;BME280;57649;42.968;1.608;2023-02-14T11:47:17;98397.41;;;12.95;53.93
70254;BME280;57649;42.968;1.608;2023-02-14T11:49:57;98396.13;;;12.99;53.48
70254;BME280;57649;42.968;1.608;2023-02-14T11:52:23;98384.09;;;12.85;53.25
70254;BME280;57649;42.968;1.608;2023-02-14T11:54:53;98382.16;;;12.95;53.37
70254;BME280;57649;42.968;1.608;2023-02-14T11:57:22;98376.94;;;12.94;53.14
70254;BME280;57649;42.968;1.608;2023-02-14T11:59:53;98371.97;;;12.81;53.73
70254;BME280;57649;42.968;1.608;2023-02-14T12:04:54;98360.44;;;12.62;54.65
70254;BME280;57649;42.968;1.608;2023-02-14T12:07:27;98352.38;;;12.88;54.22
70254;BME280;57649;42.968;1.608;2023-02-14T12:13:29;98368.38;;;12.72;54.85
70254;BME280;57649;42.968;1.608;2023-02-14T12:31:35;98326.81;;;12.84;55.14
70254;BME280;57649;42.968;1.608;2023-02-14T12:34:02;98322.28;;;12.85;55.44
70254;BME280;57649;42.968;1.608;2023-02-14T12:36:42;98304.97;;;12.79;55.18
70254;BME280;57649;42.968;1.608;2023-02-14T12:39:29;98322.22;;;13.03;54.34
70254;BME280;57649;42.968;1.608;2023-02-14T12:48:16;98310.34;;;12.87;55.16
70254;BME280;57649;42.968;1.608;2023-02-14T12:50:56;98294.81;;;13.07;53.52
70254;BME280;57649;42.968;1.608;2023-02-14T12:53:48;98291.81;;;13.02;54.38
70254;BME280;57649;42.968;1.608;2023-02-14T12:59:06;98294.88;;;12.73;54.83
70254;BME280;57649;42.968;1.608;2023-02-14T13:07:07;98273.72;;;12.78;54.48
70254;BME280;57649;42.968;1.608;2023-02-14T13:09:44;98279.50;;;12.92;54.04
70254;BME280;57649;42.968;1.608;2023-02-14T13:14:46;98269.81;;;13.07;53.99
70254;BME280;57649;42.968;1.608;2023-02-14T13:17:33;98266.13;;;13.08;53.23
70254;BME280;57649;42.968;1.608;2023-02-14T13:20:39;98253.91;;;13.30;52.42
70254;BME280;57649;42.968;1.608;2023-02-14T13:25:58;98263.13;;;13.19;52.96
70254;BME280;57649;42.968;1.608;2023-02-14T13:28:26;98255.56;;;13.23;52.32
70254;BME280;57649;42.968;1.608;2023-02-14T13:30:54;98259.47;;;13.28;51.57
70254;BME280;57649;42.968;1.608;2023-02-14T13:33:34;98255.00;;;13.03;52.32
70254;BME280;57649;42.968;1.608;2023-02-14T13:36:05;98242.44;;;13.20;52.57
70254;BME280;57649;42.968;1.608;2023-02-14T13:38:36;98245.38;;;13.35;52.28
70254;BME280;57649;42.968;1.608;2023-02-14T13:41:03;98248.66;;;13.12;52.33
70254;BME280;57649;42.968;1.608;2023-02-14T13:43:47;98240.28;;;13.23;51.87
70254;BME280;57649;42.968;1.608;2023-02-14T13:46:48;98225.19;;;13.31;52.09
70254;BME280;57649;42.968;1.608;2023-02-14T13:49:28;98222.13;;;13.25;52.55
70254;BME280;57649;42.968;1.608;2023-02-14T13:51:57;98207.53;;;13.28;52.17
70254;BME280;57649;42.968;1.608;2023-02-14T13:54:46;98214.22;;;13.24;51.86
70254;BME280;57649;42.968;1.608;2023-02-14T13:57:30;98211.09;;;13.37;52.20
70254;BME280;57649;42.968;1.608;2023-02-14T14:10:57;98198.66;;;13.60;52.45
70254;BME280;57649;42.968;1.608;2023-02-14T14:21:42;98197.66;;;13.45;52.39
70254;BME280;57649;42.968;1.608;2023-02-14T14:26:50;98187.75;;;13.70;51.88
70254;BME280;57649;42.968;1.608;2023-02-14T14:29:29;98184.56;;;13.66;52.11
70254;BME280;57649;42.968;1.608;2023-02-14T14:31:55;98174.44;;;13.85;52.06
70254;BME280;57649;42.968;1.608;2023-02-14T14:34:26;98174.44;;;13.77;52.19
70254;BME280;57649;42.968;1.608;2023-02-14T14:37:05;98172.09;;;13.65;52.35
70254;BME280;57649;42.968;1.608;2023-02-14T14:39:33;98167.91;;;13.63;51.71
70254;BME280;57649;42.968;1.608;2023-02-14T14:42:12;98164.50;;;13.77;51.86
70254;BME280;57649;42.968;1.608;2023-02-14T14:44:46;98162.84;;;13.76;51.98
70254;BME280;57649;42.968;1.608;2023-02-14T14:47:17;98160.16;;;13.76;51.80
70254;BME280;57649;42.968;1.608;2023-02-14T14:49:44;98156.81;;;13.58;51.53
70254;BME280;57649;42.968;1.608;2023-02-14T14:52:34;98170.41;;;13.81;51.83
70254;BME280;57649;42.968;1.608;2023-02-14T14:55:01;98161.31;;;13.90;51.48
70254;BME280;57649;42.968;1.608;2023-02-14T14:57:27;98163.31;;;13.88;51.26
70254;BME280;57649;42.968;1.608;2023-02-14T15:00:23;98161.81;;;13.77;51.46
70254;BME280;57649;42.968;1.608;2023-02-14T15:02:57;98163.00;;;13.91;51.35
70254;BME280;57649;42.968;1.608;2023-02-14T15:05:24;98168.38;;;13.91;51.26
70254;BME280;57649;42.968;1.608;2023-02-14T15:07:50;98159.63;;;13.81;51.70
70254;BME280;57649;42.968;1.608;2023-02-14T15:10:24;98161.66;;;13.87;51.98
70254;BME280;57649;42.968;1.608;2023-02-14T15:12:52;98159.47;;;13.91;52.09
70254;BME280;57649;42.968;1.608;2023-02-14T15:15:38;98151.41;;;13.66;52.14
70254;BME280;57649;42.968;1.608;2023-02-14T15:18:10;98155.78;;;13.75;52.57
70254;BME280;57649;42.968;1.608;2023-02-14T15:20:36;98149.75;;;13.65;52.19
70254;BME280;57649;42.968;1.608;2023-02-14T15:23:03;98159.00;;;13.71;51.83
70254;BME280;57649;42.968;1.608;2023-02-14T15:25:35;98157.81;;;13.65;52.23
70254;BME280;57649;42.968;1.608;2023-02-14T15:28:02;98148.22;;;13.71;52.37
70254;BME280;57649;42.968;1.608;2023-02-14T15:30:30;98152.28;;;13.50;52.33
70254;BME280;57649;42.968;1.608;2023-02-14T15:33:00;98150.09;;;13.54;52.83
70254;BME280;57649;42.968;1.608;2023-02-14T15:35:32;98148.41;;;13.61;53.03
70254;BME280;57649;42.968;1.608;2023-02-14T15:38:00;98149.91;;;13.55;52.79